Home > Products > Valid Products > TAF

000
FTUS41 KALY 020525
TAFGFL
TAF
KGFL 020525Z 0206/0306 00000KT P6SM SCT250
     FM021100 19006KT P6SM FEW060 BKN120 BKN200
     FM021600 19012G18KT P6SM FEW120 SCT250
     FM022300 19008KT P6SM VCSH BKN040 OVC080=



000
FTUS41 KALY 020525
TAFPOU
TAF
KPOU 020525Z 0206/0306 00000KT P6SM SCT250
     FM021200 19008KT P6SM FEW060 BKN120 BKN200
     FM021600 19012G18KT P6SM FEW120 SCT250
     FM030000 19008KT P6SM VCSH BKN040 OVC080=



000
FTUS41 KALY 020133 AAA
TAFALB
TAF AMD
KALB 020133Z 0202/0224 29012KT P6SM SKC
     FM020400 VRB03KT P6SM SCT250
     FM020700 VRB03KT P6SM SCT040 BKN120 BKN200
     FM021100 17005KT P6SM VCSH BKN040 OVC100
     FM021600 19010G20KT P6SM SCT045 SCT120 BKN200=



000
FTUS41 KALY 012320
TAFPOU
TAF
KPOU 012320Z 0200/0224 29009KT P6SM SKC
     FM020400 VRB03KT P6SM SCT250
     FM020700 00000KT P6SM SCT035 BKN120 BKN200
     FM021000 17005KT P6SM BKN035 OVC100
     FM021600 21010G20KT P6SM SCT045 SCT120 BKN200=



000
FTUS41 KALY 012320
TAFALB
TAF
KALB 012320Z 0200/0224 29009KT P6SM SKC
     FM020400 VRB03KT P6SM SCT250
     FM020700 VRB03KT P6SM SCT040 BKN120 BKN200
     FM021100 17005KT P6SM VCSH BKN040 OVC100
     FM021600 19010G20KT P6SM SCT045 SCT120 BKN200=



000
FTUS41 KALY 012320
TAFGFL
TAF
KGFL 012320Z 0200/0224 VRB03KT P6SM SKC
     FM020400 00000KT P6SM SCT250
     FM020700 00000KT P6SM SCT040 BKN120 BKN200
     FM021100 VRB03KT P6SM VCSH BKN040 OVC100
     FM021600 19010KT P6SM SCT045 SCT120 BKN200=



000
FTUS41 KALY 011921 AAA
TAFALB
TAF AMD
KALB 011921Z 0119/0218 28012G20KT P6SM SCT250
     FM012200 30008KT P6SM SCT250
     FM020400 VRB03KT P6SM BKN250
     FM020800 17006KT P6SM SCT040 BKN120
     FM021100 19008KT P6SM BKN040 BKN120
     FM021500 19013G23KT P6SM SCT040 SCT120 BKN250=



000
FTUS41 KALY 011733
TAFALB
TAF
KALB 011733Z 0118/0218 30010G18KT P6SM SCT250
     FM012200 30008KT P6SM SCT250
     FM020400 VRB03KT P6SM BKN250
     FM020800 17006KT P6SM SCT040 BKN120
     FM021100 19008KT P6SM BKN040 BKN120
     FM021500 19013G23KT P6SM SCT040 SCT120 BKN250=



000
FTUS41 KALY 011733
TAFGFL
TAF
KGFL 011733Z 0118/0218 04007KT P6SM SKC
     FM012200 VRB03KT P6SM SCT250
     FM020400 00000KT P6SM BKN250
     FM020800 00000KT P6SM SCT040 BKN120
     FM021100 18003KT P6SM VCSH BKN040 BKN120
     FM021600 19008KT P6SM SCT040 SCT120 BKN250=



000
FTUS41 KALY 011733
TAFALB
TAF
KALB 011733Z 0118/0218 30010G18KT P6SM SCT250
     FM012200 30008KT P6SM SCT250
     FM020400 VRB03KT P6SM BKN250
     FM020800 17006KT P6SM SCT040 BKN120
     FM021100 19008KT P6SM BKN040 BKN120
     FM021500 19013G23KT P6SM SCT040 SCT120 BKN250=



000
FTUS41 KALY 011733
TAFPOU
TAF
KPOU 011733Z 0118/0218 28008KT P6SM SKC
     FM012200 31006KT P6SM SCT250
     FM020400 00000KT P6SM BKN250
     FM020800 00000KT P6SM SCT040 BKN120
     FM021200 19004KT P6SM BKN040 BKN120
     FM021500 20008KT P6SM SCT120 BKN250=



000
FTUS41 KALY 011733
TAFGFL
TAF
KGFL 011733Z 0118/0218 04007KT P6SM SKC
     FM012200 VRB03KT P6SM SCT250
     FM020400 00000KT P6SM BKN250
     FM020800 00000KT P6SM SCT040 BKN120
     FM021100 18003KT P6SM VCSH BKN040 BKN120
     FM021600 19008KT P6SM SCT040 SCT120 BKN250=



000
FTUS41 KALY 011733
TAFPOU
TAF
KPOU 011733Z 0118/0218 28008KT P6SM SKC
     FM012200 31006KT P6SM SCT250
     FM020400 00000KT P6SM BKN250
     FM020800 00000KT P6SM SCT040 BKN120
     FM021200 19004KT P6SM BKN040 BKN120
     FM021500 20008KT P6SM SCT120 BKN250=



000
FTUS41 KALY 011603 AAA
TAFALB
TAF AMD
KALB 011603Z 0116/0212 34007KT P6SM FEW250
     FM011900 31010G18KT P6SM SCT250
     FM012300 VRB03KT P6SM SCT120 BKN250=



000
FTUS41 KALY 011142
TAFALB
TAF
KALB 011142Z 0112/0212 34005KT P6SM FEW200
     FM011500 31010G18KT P6SM SCT250
     FM012300 VRB03KT P6SM SCT120 BKN250=



000
FTUS41 KALY 011142
TAFPOU
TAF
KPOU 011142Z 0112/0212 34005KT P6SM SKC
     FM011800 32008KT P6SM SCT250
     FM012300 VRB03KT P6SM SCT120 BKN250=



000
FTUS41 KALY 011142
TAFGFL
TAF
KGFL 011142Z 0112/0212 34005KT P6SM SKC
     FM011400 34008KT P6SM SCT250
     FM012200 VRB03KT P6SM SCT120 BKN250=



000
FTUS41 KALY 011142
TAFPOU
TAF
KPOU 011142Z 0112/0212 34005KT P6SM SKC
     FM011800 32008KT P6SM SCT250
     FM012300 VRB03KT P6SM SCT120 BKN250=



000
FTUS41 KALY 011142
TAFALB
TAF
KALB 011142Z 0112/0212 34005KT P6SM FEW200
     FM011500 31010G18KT P6SM SCT250
     FM012300 VRB03KT P6SM SCT120 BKN250=



000
FTUS41 KALY 011142
TAFGFL
TAF
KGFL 011142Z 0112/0212 34005KT P6SM SKC
     FM011400 34008KT P6SM SCT250
     FM012200 VRB03KT P6SM SCT120 BKN250=



000
FTUS41 KALY 010845 AAB
TAFPOU
TAF AMD
KPOU 010845Z 0109/0206 34005KT P6SM SKC
     FM011800 32008KT P6SM SCT250=



000
FTUS41 KALY 010845 AAB
TAFPOU
TAF AMD
KPOU 010845Z 0109/0206 34005KT P6SM SKC
     FM011800 32008KT P6SM SCT250=



000
FTUS41 KALY 010728 AAA
TAFPOU
TAF AMD
KPOU 010728Z 0107/0206 32003KT P6SM SCT003
      TEMPO 0107/0110 2SM BR BKN003
     FM011200 32005KT P6SM SCT015 BKN040
     FM011800 32008KT P6SM SCT250=



000
FTUS41 KALY 010728 AAA
TAFPOU
TAF AMD
KPOU 010728Z 0107/0206 32003KT P6SM SCT003
      TEMPO 0107/0110 2SM BR BKN003
     FM011200 32005KT P6SM SCT015 BKN040
     FM011800 32008KT P6SM SCT250=



000
FTUS41 KALY 010558 CCB
TAFPOU
TAF COR
KPOU 010558Z 0106/0206 32003KT P6SM OVC003
      TEMPO 0106/0109 2SM BR SCT003 OVC010
     FM010900 VRB03KT P6SM SCT008 BKN015
      TEMPO 0109/0112 2SM BR BKN008
     FM011200 32005KT P6SM SCT015 BKN040
     FM011800 32008KT P6SM SCT250=



000
FTUS41 KALY 010558 CCB
TAFPOU
TAF COR
KPOU 010558Z 0106/0206 32003KT P6SM OVC003
      TEMPO 0106/0109 2SM BR SCT003 OVC010
     FM010900 VRB03KT P6SM SCT008 BKN015
      TEMPO 0109/0112 2SM BR BKN008
     FM011200 32005KT P6SM SCT015 BKN040
     FM011800 32008KT P6SM SCT250=



000
FTUS41 KALY 010557 CCA
TAFPOU
TAF COR
KPOU 010557Z 0106/0206 32003KT P6SM OVC003
      TEMPO 0106/0109 2SM -DZ BR SCT003 OVC010
     FM010900 00000KT 2SM BR SCT008 BKN015
      TEMPO 0109/0112 34003KT P6SM NSW BKN008
     FM011200 32005KT P6SM SCT015 BKN040
     FM011800 32008KT P6SM SCT250=



000
FTUS41 KALY 010557 CCA
TAFPOU
TAF COR
KPOU 010557Z 0106/0206 32003KT P6SM OVC003
      TEMPO 0106/0109 2SM -DZ BR SCT003 OVC010
     FM010900 00000KT 2SM BR SCT008 BKN015
      TEMPO 0109/0112 34003KT P6SM NSW BKN008
     FM011200 32005KT P6SM SCT015 BKN040
     FM011800 32008KT P6SM SCT250=



000
FTUS41 KALY 010520
TAFALB
TAF
KALB 010520Z 0106/0206 34005KT P6SM FEW200
     FM011400 31010KT P6SM SCT250
     FM012300 VRB03KT P6SM SCT120 BKN250=



000
FTUS41 KALY 010520
TAFPOU
TAF
KPOU 010520Z 0106/0206 32005KT 5SM BR OVC003
      TEMPO 0106/0109 2SM -DZ BR SCT003 OVC010
     FM010900 00000KT 2SM BR SCT008 BKN015
      TEMPO 0109/0112 34003KT P6SM NSW BKN008
     FM011200 32005KT P6SM SCT015 BKN040
     FM011800 32008KT P6SM SCT250=



000
FTUS41 KALY 010520
TAFGFL
TAF
KGFL 010520Z 0106/0206 34005KT P6SM SKC
     FM011400 34008KT P6SM SCT250
     FM012200 VRB03KT P6SM SCT120 BKN250=



000
FTUS41 KALY 010520
TAFGFL
TAF
KGFL 010520Z 0106/0206 34005KT P6SM SKC
     FM011400 34008KT P6SM SCT250
     FM012200 VRB03KT P6SM SCT120 BKN250=



000
FTUS41 KALY 010520
TAFALB
TAF
KALB 010520Z 0106/0206 34005KT P6SM FEW200
     FM011400 31010KT P6SM SCT250
     FM012300 VRB03KT P6SM SCT120 BKN250=



000
FTUS41 KALY 010520
TAFPOU
TAF
KPOU 010520Z 0106/0206 32005KT 5SM BR OVC003
      TEMPO 0106/0109 2SM -DZ BR SCT003 OVC010
     FM010900 00000KT 2SM BR SCT008 BKN015
      TEMPO 0109/0112 34003KT P6SM NSW BKN008
     FM011200 32005KT P6SM SCT015 BKN040
     FM011800 32008KT P6SM SCT250=



000
FTUS41 KALY 010409 AAB
TAFPOU
TAF AMD
KPOU 010409Z 0104/0124 36004KT 1/2SM -DZ FG VV002
      TEMPO 0104/0106 3SM BR SCT002 OVC010
     FM010600 35004KT 3SM BR SCT025 SCT035 SCT100
     FM010900 36004KT P6SM BCFG SCT100 BKN200
     FM011500 33007KT P6SM SCT045 BKN100 BKN150=



000
FTUS41 KALY 010201 AAA
TAFPOU
TAF AMD
KPOU 010201Z 0102/0124 36004KT P6SM VCSH SCT005 BKN012 BKN025
      TEMPO 0102/0104 1SM -DZ BR OVC002
     FM010400 35004KT 3SM BR SCT025 SCT035 SCT100
     FM010900 36004KT P6SM BCFG SCT100 BKN200
     FM011500 33007KT P6SM SCT045 BKN100 BKN150=



000
FTUS41 KALY 010201 AAA
TAFPOU
TAF AMD
KPOU 010201Z 0102/0124 36004KT P6SM VCSH SCT005 BKN012 BKN025
      TEMPO 0102/0104 1SM -DZ BR OVC002
     FM010400 35004KT 3SM BR SCT025 SCT035 SCT100
     FM010900 36004KT P6SM BCFG SCT100 BKN200
     FM011500 33007KT P6SM SCT045 BKN100 BKN150=



000
FTUS41 KALY 312320
TAFPOU
TAF
KPOU 312320Z 0100/0124 36004KT P6SM VCSH SCT005 BKN012 BKN025
      TEMPO 0100/0102 6SM -RASN BKN005
     FM010300 35004KT 3SM BR SCT025 SCT035 SCT100
     FM010900 36004KT P6SM BCFG SCT100 BKN200
     FM011500 33007KT P6SM SCT045 BKN100 BKN150=



000
FTUS41 KALY 312320
TAFGFL
TAF
KGFL 312320Z 0100/0124 VRB04KT P6SM SCT100 SCT200
     FM010200 36003KT P6SM SKC
     FM010800 36004KT P6SM BCFG SCT100 SCT200
      TEMPO 0108/0111 3SM BR
     FM011100 35006KT P6SM BKN100 BKN150
     FM012000 33008KT P6SM SCT045 SCT100 SCT200=



000
FTUS41 KALY 312320
TAFALB
TAF
KALB 312320Z 0100/0124 30007KT P6SM SCT100 SCT200
     FM010200 33003KT P6SM SKC
     FM010800 34004KT P6SM SCT100 SCT200
     FM011100 33006KT P6SM BKN100 BKN150
     FM012000 31010KT P6SM SCT045 SCT100 SCT200=



000
FTUS41 KALY 312256 AAC
TAFPOU
TAF AMD
KPOU 312256Z 3123/0118 35003KT P6SM -RA SCT030 OVC050
      TEMPO 3123/3124 3SM -RASN BKN005 OVC020
     FM010000 36004KT 5SM -SN BR OVC025
     FM010300 36004KT 3SM BR SCT050 BKN200
     FM011400 34005KT P6SM BKN040 OVC070=



000
FTUS41 KALY 312256 AAC
TAFPOU
TAF AMD
KPOU 312256Z 3123/0118 35003KT P6SM -RA SCT030 OVC050
      TEMPO 3123/3124 3SM -RASN BKN005 OVC020
     FM010000 36004KT 5SM -SN BR OVC025
     FM010300 36004KT 3SM BR SCT050 BKN200
     FM011400 34005KT P6SM BKN040 OVC070=



000
FTUS41 KALY 312058 AAB
TAFPOU
TAF AMD
KPOU 312058Z 3121/0118 35003KT P6SM -RA SCT030 OVC050
      TEMPO 3121/3124 6SM -RASN BKN012 OVC020
     FM010000 36004KT 5SM -SN BR OVC025
     FM010300 36004KT 3SM BR SCT050 BKN200
     FM011400 34005KT P6SM BKN040 OVC070=



000
FTUS41 KALY 311908 AAA
TAFPOU
TAF AMD
KPOU 311908Z 3119/0118 23011G18KT P6SM BKN040 OVC050
     FM312000 35003KT P6SM -RA SCT030 OVC050
     FM010000 36004KT 5SM -SN BR OVC025
     FM010300 36004KT 3SM BR SCT050 BKN200
     FM011400 34005KT P6SM BKN040 OVC070=



000
FTUS41 KALY 311908 AAA
TAFPOU
TAF AMD
KPOU 311908Z 3119/0118 23011G18KT P6SM BKN040 OVC050
     FM312000 35003KT P6SM -RA SCT030 OVC050
     FM010000 36004KT 5SM -SN BR OVC025
     FM010300 36004KT 3SM BR SCT050 BKN200
     FM011400 34005KT P6SM BKN040 OVC070=



000
FTUS41 KALY 311907 AAB
TAFGFL
TAF AMD
KGFL 311907Z 3119/0118 19014KT P6SM BKN200
     FM312100 04003KT P6SM SCT120 BKN200
     FM010200 03003KT P6SM SKC
     FM011400 36004KT P6SM FEW040 SCT100=



000
FTUS41 KALY 311812 AAA
TAFGFL
TAF AMD
KGFL 311812Z 3118/0118 04003KT P6SM BKN200
     FM312100 04003KT P6SM SCT120 BKN200
     FM010200 03003KT P6SM SKC
     FM011400 36004KT P6SM FEW040 SCT100=



000
FTUS41 KALY 311737
TAFALB
TAF
KALB 311737Z 3118/0118 27011KT P6SM FEW040 BKN120 OVC240
     FM312000 32006KT P6SM SCT040 OVC080
     FM010400 34004KT P6SM SKC
     FM011400 30007KT P6SM SCT040 BKN100=



000
FTUS41 KALY 311737
TAFPOU
TAF
KPOU 311737Z 3118/0118 23011KT P6SM OVC090
     FM311900 35003KT P6SM -RA SCT030 OVC050
     FM010000 36004KT 5SM -SN BR OVC025
     FM010300 36004KT 3SM BR SCT050 BKN200
     FM011400 34005KT P6SM BKN040 OVC070=



000
FTUS41 KALY 311737
TAFGFL
TAF
KGFL 311737Z 3118/0118 19008KT P6SM BKN200
     FM312100 VRB04KT P6SM SCT120 BKN200
     FM010200 03004KT P6SM SKC
     FM011400 36004KT P6SM FEW040 SCT100=



000
FTUS41 KALY 311737
TAFALB
TAF
KALB 311737Z 3118/0118 27011KT P6SM FEW040 BKN120 OVC240
     FM312000 32006KT P6SM SCT040 OVC080
     FM010400 34004KT P6SM SKC
     FM011400 30007KT P6SM SCT040 BKN100=



000
FTUS41 KALY 311737
TAFPOU
TAF
KPOU 311737Z 3118/0118 23011KT P6SM OVC090
     FM311900 35003KT P6SM -RA SCT030 OVC050
     FM010000 36004KT 5SM -SN BR OVC025
     FM010300 36004KT 3SM BR SCT050 BKN200
     FM011400 34005KT P6SM BKN040 OVC070=



000
FTUS41 KALY 311737
TAFGFL
TAF
KGFL 311737Z 3118/0118 19008KT P6SM BKN200
     FM312100 VRB04KT P6SM SCT120 BKN200
     FM010200 03004KT P6SM SKC
     FM011400 36004KT P6SM FEW040 SCT100=



000
FTUS41 KALY 311520 AAB
TAFALB
TAF AMD
KALB 311520Z 3115/0112 31010G17KT P6SM SCT040 BKN220
     FM312000 32006KT P6SM BKN080
     FM010500 34004KT P6SM SKC=



000
FTUS41 KALY 311520 AAB
TAFALB
TAF AMD
KALB 311520Z 3115/0112 31010G17KT P6SM SCT040 BKN220
     FM312000 32006KT P6SM BKN080
     FM010500 34004KT P6SM SKC=



000
FTUS41 KALY 311304 AAA
TAFALB
TAF AMD
KALB 311304Z 3113/0112 28010G20KT P6SM SCT025 BKN045 BKN060
      TEMPO 3113/3114 BKN025
     FM311400 28008G15KT P6SM BKN045
     FM312000 32006KT P6SM BKN080
     FM010500 34004KT P6SM SKC=



000
FTUS41 KALY 311304 AAA
TAFALB
TAF AMD
KALB 311304Z 3113/0112 28010G20KT P6SM SCT025 BKN045 BKN060
      TEMPO 3113/3114 BKN025
     FM311400 28008G15KT P6SM BKN045
     FM312000 32006KT P6SM BKN080
     FM010500 34004KT P6SM SKC=



000
FTUS41 KALY 311156 CCA
TAFALB
TAF COR
KALB 311156Z 3112/0112 29012KT P6SM VCSH SCT028 BKN060
      TEMPO 3112/3114 BKN028
     FM311400 28008G15KT P6SM BKN045
     FM312000 32006KT P6SM BKN080
     FM010500 34004KT P6SM SKC=



000
FTUS41 KALY 311156 CCA
TAFALB
TAF COR
KALB 311156Z 3112/0112 29012KT P6SM VCSH SCT028 BKN060
      TEMPO 3112/3114 BKN028
     FM311400 28008G15KT P6SM BKN045
     FM312000 32006KT P6SM BKN080
     FM010500 34004KT P6SM SKC=



000
FTUS41 KALY 311144
TAFGFL
TAF
KGFL 311144Z 3112/0112 15003KT P6SM OVC050
     FM312100 36004KT P6SM BKN120
     FM010400 03004KT P6SM SKC=



000
FTUS41 KALY 311144
TAFPOU
TAF
KPOU 311144Z 3112/0112 24007KT P6SM SKC
      TEMPO 3112/3115 BKN050
     FM311500 25006KT P6SM OVC100
     FM311900 35003KT 3SM -SN OVC030
     FM010200 36004KT P6SM VCSH OVC070
     FM010800 36004KT P6SM SKC=



000
FTUS41 KALY 311144
TAFALB
TAF
KALB 311144Z 3112/0112 28009KT P6SM VCSH BKN028 BKN060
     FM311400 28008G15KT P6SM BKN045
     FM312000 32006KT P6SM BKN080
     FM010500 34004KT P6SM SKC=



000
FTUS41 KALY 311144
TAFALB
TAF
KALB 311144Z 3112/0112 28009KT P6SM VCSH BKN028 BKN060
     FM311400 28008G15KT P6SM BKN045
     FM312000 32006KT P6SM BKN080
     FM010500 34004KT P6SM SKC=



000
FTUS41 KALY 311144
TAFGFL
TAF
KGFL 311144Z 3112/0112 15003KT P6SM OVC050
     FM312100 36004KT P6SM BKN120
     FM010400 03004KT P6SM SKC=



000
FTUS41 KALY 311144
TAFPOU
TAF
KPOU 311144Z 3112/0112 24007KT P6SM SKC
      TEMPO 3112/3115 BKN050
     FM311500 25006KT P6SM OVC100
     FM311900 35003KT 3SM -SN OVC030
     FM010200 36004KT P6SM VCSH OVC070
     FM010800 36004KT P6SM SKC=



000
FTUS41 KALY 311107 AAB
TAFALB
TAF AMD
KALB 311107Z 3111/0106 28010KT P6SM BKN035 BKN070
     FM311400 28008G14KT P6SM BKN040
     FM312000 32006KT P6SM BKN080
     FM010400 34004KT P6SM SCT080=



000
FTUS41 KALY 311107 AAB
TAFALB
TAF AMD
KALB 311107Z 3111/0106 28010KT P6SM BKN035 BKN070
     FM311400 28008G14KT P6SM BKN040
     FM312000 32006KT P6SM BKN080
     FM010400 34004KT P6SM SCT080=



000
FTUS41 KALY 310711 AAA
TAFALB
TAF AMD
KALB 310711Z 3107/0106 28012G20KT P6SM BKN035
      TEMPO 3107/3110 -SHSN
     FM311400 28008G14KT P6SM BKN040
     FM312000 32006KT P6SM BKN080
     FM010400 34004KT P6SM SCT080=



000
FTUS41 KALY 310537
TAFPOU
TAF
KPOU 310537Z 3106/0106 24005KT P6SM SCT040
     FM311300 25006KT P6SM OVC100
     FM311900 VRB03KT 3SM -SN OVC030
     FM010200 36004KT P6SM VCSH OVC070=



000
FTUS41 KALY 310537
TAFPOU
TAF
KPOU 310537Z 3106/0106 24005KT P6SM SCT040
     FM311300 25006KT P6SM OVC100
     FM311900 VRB03KT 3SM -SN OVC030
     FM010200 36004KT P6SM VCSH OVC070=



000
FTUS41 KALY 310537
TAFALB
TAF
KALB 310537Z 3106/0106 28008G14KT P6SM BKN045
      TEMPO 3106/3110 -SHSN
     FM312000 32006KT P6SM BKN080
     FM010400 34004KT P6SM SCT080=



000
FTUS41 KALY 310537
TAFALB
TAF
KALB 310537Z 3106/0106 28008G14KT P6SM BKN045
      TEMPO 3106/3110 -SHSN
     FM312000 32006KT P6SM BKN080
     FM010400 34004KT P6SM SCT080=



000
FTUS41 KALY 310537
TAFGFL
TAF
KGFL 310537Z 3106/0106 25007KT P6SM BKN060
     FM312100 36004KT P6SM BKN120
     FM010400 VRB03KT P6SM SKC=



000
FTUS41 KALY 310537
TAFGFL
TAF
KGFL 310537Z 3106/0106 25007KT P6SM BKN060
     FM312100 36004KT P6SM BKN120
     FM010400 VRB03KT P6SM SKC=



000
FTUS41 KALY 310057 AAA
TAFGFL
TAF AMD
KGFL 310057Z 3101/3124 22007KT P6SM SCT110
     FM310700 28007KT P6SM BKN035
     FM311600 VRB04KT P6SM SCT035 BKN200=



000
FTUS41 KALY 310057 AAA
TAFGFL
TAF AMD
KGFL 310057Z 3101/3124 22007KT P6SM SCT110
     FM310700 28007KT P6SM BKN035
     FM311600 VRB04KT P6SM SCT035 BKN200=



000
FTUS41 KALY 302355 AAA
TAFALB
TAF AMD
KALB 302355Z 3100/3124 26009KT P6SM FEW045 FEW080
     FM310700 29010KT P6SM BKN035
     FM311600 29006KT P6SM BKN120 OVC200=



000
FTUS41 KALY 302355 AAA
TAFALB
TAF AMD
KALB 302355Z 3100/3124 26009KT P6SM FEW045 FEW080
     FM310700 29010KT P6SM BKN035
     FM311600 29006KT P6SM BKN120 OVC200=



000
FTUS41 KALY 302320
TAFPOU
TAF
KPOU 302320Z 3100/3124 30007KT P6SM BKN080
     FM310200 25009KT P6SM VCSH BKN035
     FM310400 27005KT P6SM SCT040
     FM311600 29006KT P6SM BKN070 OVC100=



000
FTUS41 KALY 302320
TAFALB
TAF
KALB 302320Z 3100/3124 28014G22KT P6SM SCT045 SCT060 BKN080
     FM310700 29010KT P6SM BKN035
     FM311600 29006KT P6SM BKN120 OVC200=



000
FTUS41 KALY 302320
TAFGFL
TAF
KGFL 302320Z 3100/3124 24007G17KT P6SM BKN060
     FM310700 28007KT P6SM BKN035
     FM311600 VRB04KT P6SM SCT035 BKN200=



000
FTUS41 KALY 302320
TAFALB
TAF
KALB 302320Z 3100/3124 28014G22KT P6SM SCT045 SCT060 BKN080
     FM310700 29010KT P6SM BKN035
     FM311600 29006KT P6SM BKN120 OVC200=



000
FTUS41 KALY 302320
TAFGFL
TAF
KGFL 302320Z 3100/3124 24007G17KT P6SM BKN060
     FM310700 28007KT P6SM BKN035
     FM311600 VRB04KT P6SM SCT035 BKN200=



000
FTUS41 KALY 302320
TAFPOU
TAF
KPOU 302320Z 3100/3124 30007KT P6SM BKN080
     FM310200 25009KT P6SM VCSH BKN035
     FM310400 27005KT P6SM SCT040
     FM311600 29006KT P6SM BKN070 OVC100=



000
FTUS41 KALY 302256 AAD
TAFPOU
TAF AMD
KPOU 302256Z 3023/3118 30007KT P6SM BKN080
     FM310200 25009KT P6SM VCSH BKN035
     FM310400 27005KT P6SM SCT040
     FM311600 29006KT P6SM BKN070 OVC100=



000
FTUS41 KALY 302256 AAD
TAFPOU
TAF AMD
KPOU 302256Z 3023/3118 30007KT P6SM BKN080
     FM310200 25009KT P6SM VCSH BKN035
     FM310400 27005KT P6SM SCT040
     FM311600 29006KT P6SM BKN070 OVC100=



000
FTUS41 KALY 302233 AAC
TAFPOU
TAF AMD
KPOU 302233Z 3023/3118 26012G19KT P6SM BKN070 OVC080
     FM310200 25009KT P6SM VCSH BKN035
     FM310400 27005KT P6SM SCT040
     FM311600 29006KT P6SM BKN070 OVC100=



000
FTUS41 KALY 302233 AAC
TAFPOU
TAF AMD
KPOU 302233Z 3023/3118 26012G19KT P6SM BKN070 OVC080
     FM310200 25009KT P6SM VCSH BKN035
     FM310400 27005KT P6SM SCT040
     FM311600 29006KT P6SM BKN070 OVC100=



000
FTUS41 KALY 302233 AAD
TAFGFL
TAF AMD
KGFL 302233Z 3023/3118 26012G21KT P6SM VCSH SCT050 OVC080
     FM310000 25008G14KT P6SM BKN035 OVC070
     FM310700 28007KT P6SM BKN035
     FM311600 VRB04KT P6SM SCT035 BKN200=



000
FTUS41 KALY 302233 AAD
TAFGFL
TAF AMD
KGFL 302233Z 3023/3118 26012G21KT P6SM VCSH SCT050 OVC080
     FM310000 25008G14KT P6SM BKN035 OVC070
     FM310700 28007KT P6SM BKN035
     FM311600 VRB04KT P6SM SCT035 BKN200=



000
FTUS41 KALY 302103 AAC
TAFGFL
TAF AMD
KGFL 302103Z 3021/3118 25008KT P6SM VCSH BKN045 OVC070
     FM310000 25008G14KT P6SM BKN035 OVC070
     FM310700 28007KT P6SM BKN035
     FM311600 VRB04KT P6SM SCT035 BKN200=



000
FTUS41 KALY 302103 AAC
TAFGFL
TAF AMD
KGFL 302103Z 3021/3118 25008KT P6SM VCSH BKN045 OVC070
     FM310000 25008G14KT P6SM BKN035 OVC070
     FM310700 28007KT P6SM BKN035
     FM311600 VRB04KT P6SM SCT035 BKN200=



000
FTUS41 KALY 302012 AAB
TAFPOU
TAF AMD
KPOU 302012Z 3020/3118 27009KT P6SM FEW050 OVC080
     FM310200 25009KT P6SM VCSH BKN035
     FM310400 27005KT P6SM SCT040
     FM311600 29006KT P6SM BKN070 OVC100=



000
FTUS41 KALY 302012 AAA
TAFALB
TAF AMD
KALB 302012Z 3020/3118 26016G22KT P6SM VCSH BKN045 OVC060
     FM302100 27012G20KT P6SM BKN035
     FM310700 29010KT P6SM BKN035
     FM311600 29006KT P6SM BKN120 OVC200=



000
FTUS41 KALY 302012 AAB
TAFGFL
TAF AMD
KGFL 302012Z 3020/3118 24009G19KT P6SM VCSH OVC040
     FM310000 25008G14KT P6SM BKN035 OVC070
     FM310700 28007KT P6SM BKN035
     FM311600 VRB04KT P6SM SCT035 BKN200=



000
FTUS41 KALY 301858 AAA
TAFPOU
TAF AMD
KPOU 301858Z 3019/3118 29013G23KT P6SM FEW050 OVC060
     FM310200 25009KT P6SM VCSH BKN035
     FM310400 27005KT P6SM SCT040
     FM311600 29006KT P6SM BKN070 OVC100=



000
FTUS41 KALY 301858 AAA
TAFPOU
TAF AMD
KPOU 301858Z 3019/3118 29013G23KT P6SM FEW050 OVC060
     FM310200 25009KT P6SM VCSH BKN035
     FM310400 27005KT P6SM SCT040
     FM311600 29006KT P6SM BKN070 OVC100=



000
FTUS41 KALY 301853 AAA
TAFGFL
TAF AMD
KGFL 301853Z 3019/3118 18009KT P6SM VCSH SCT035 BKN050 OVC060
     FM310000 25008G14KT P6SM BKN035 OVC070
     FM310700 28007KT P6SM BKN035
     FM311600 VRB04KT P6SM SCT035 BKN200=



000
FTUS41 KALY 301853 AAA
TAFGFL
TAF AMD
KGFL 301853Z 3019/3118 18009KT P6SM VCSH SCT035 BKN050 OVC060
     FM310000 25008G14KT P6SM BKN035 OVC070
     FM310700 28007KT P6SM BKN035
     FM311600 VRB04KT P6SM SCT035 BKN200=



000
FTUS41 KALY 301753 CCA
TAFGFL
TAF COR
KGFL 301753Z 3018/3118 18010KT P6SM VCSH FEW027 BKN030 OVC060
     FM310000 25008G14KT P6SM BKN035 OVC070
     FM310700 28007KT P6SM BKN035
     FM311600 VRB04KT P6SM SCT035 BKN200=



000
FTUS41 KALY 301753 CCA
TAFGFL
TAF COR
KGFL 301753Z 3018/3118 18010KT P6SM VCSH FEW027 BKN030 OVC060
     FM310000 25008G14KT P6SM BKN035 OVC070
     FM310700 28007KT P6SM BKN035
     FM311600 VRB04KT P6SM SCT035 BKN200=



000
FTUS41 KALY 301733
TAFGFL
TAF
KGFL 301733Z 3018/3118 19010KT P6SM VCSH BKN026 OVC030
     FM310000 25008G14KT P6SM BKN035 OVC070
     FM310700 28007KT P6SM BKN035
     FM311600 VRB04KT P6SM SCT035 BKN200=



000
FTUS41 KALY 301733
TAFPOU
TAF
KPOU 301733Z 3018/3118 22009KT P6SM BKN045 OVC080
     FM310200 25009KT P6SM VCSH BKN035
     FM310400 27005KT P6SM SCT040
     FM311600 29006KT P6SM BKN070 OVC100=



000
FTUS41 KALY 301733
TAFALB
TAF
KALB 301733Z 3018/3118 18010KT P6SM VCSH BKN040 OVC060
     FM302100 27012G20KT P6SM BKN035
     FM310700 29010KT P6SM BKN035
     FM311600 29006KT P6SM BKN120 OVC200=



000
FTUS41 KALY 301733
TAFGFL
TAF
KGFL 301733Z 3018/3118 19010KT P6SM VCSH BKN026 OVC030
     FM310000 25008G14KT P6SM BKN035 OVC070
     FM310700 28007KT P6SM BKN035
     FM311600 VRB04KT P6SM SCT035 BKN200=



000
FTUS41 KALY 301733
TAFPOU
TAF
KPOU 301733Z 3018/3118 22009KT P6SM BKN045 OVC080
     FM310200 25009KT P6SM VCSH BKN035
     FM310400 27005KT P6SM SCT040
     FM311600 29006KT P6SM BKN070 OVC100=



000
FTUS41 KALY 301733
TAFALB
TAF
KALB 301733Z 3018/3118 18010KT P6SM VCSH BKN040 OVC060
     FM302100 27012G20KT P6SM BKN035
     FM310700 29010KT P6SM BKN035
     FM311600 29006KT P6SM BKN120 OVC200=



000
FTUS41 KALY 301703 AAE
TAFGFL
TAF AMD
KGFL 301703Z 3017/3112 19010KT P6SM VCSH BKN026 OVC030
     FM301800 24014G22KT P6SM -SHRASN BKN020
     FM310000 25008G14KT P6SM BKN035
     FM310700 28007KT P6SM BKN050=



000
FTUS41 KALY 301703 AAE
TAFGFL
TAF AMD
KGFL 301703Z 3017/3112 19010KT P6SM VCSH BKN026 OVC030
     FM301800 24014G22KT P6SM -SHRASN BKN020
     FM310000 25008G14KT P6SM BKN035
     FM310700 28007KT P6SM BKN050=



000
FTUS41 KALY 301702 AAD
TAFALB
TAF AMD
KALB 301702Z 3017/3112 18010KT P6SM VCSH BKN040 OVC060
     FM302100 27012G20KT P6SM BKN050
     FM310700 29010KT P6SM BKN050=



000
FTUS41 KALY 301702 AAD
TAFALB
TAF AMD
KALB 301702Z 3017/3112 18010KT P6SM VCSH BKN040 OVC060
     FM302100 27012G20KT P6SM BKN050
     FM310700 29010KT P6SM BKN050=



000
FTUS41 KALY 301607 AAC
TAFALB
TAF AMD
KALB 301607Z 3016/3112 17010G17KT P6SM VCSH BKN040 BKN060 OVC070
     FM301700 22015G25KT P6SM VCSH BKN035
     FM302100 27012G20KT P6SM BKN050
     FM310700 29010KT P6SM BKN050=



000
FTUS41 KALY 301607 AAC
TAFALB
TAF AMD
KALB 301607Z 3016/3112 17010G17KT P6SM VCSH BKN040 BKN060 OVC070
     FM301700 22015G25KT P6SM VCSH BKN035
     FM302100 27012G20KT P6SM BKN050
     FM310700 29010KT P6SM BKN050=



000
FTUS41 KALY 301606 AAD
TAFGFL
TAF AMD
KGFL 301606Z 3016/3112 21009KT P6SM VCSH SCT035 OVC060
     FM301800 24014G22KT P6SM -SHRASN BKN020
     FM310000 25008G14KT P6SM BKN035
     FM310700 28007KT P6SM BKN050=



000
FTUS41 KALY 301606 AAD
TAFGFL
TAF AMD
KGFL 301606Z 3016/3112 21009KT P6SM VCSH SCT035 OVC060
     FM301800 24014G22KT P6SM -SHRASN BKN020
     FM310000 25008G14KT P6SM BKN035
     FM310700 28007KT P6SM BKN050=



000
FTUS41 KALY 301507 AAA
TAFPOU
TAF AMD
KPOU 301507Z 3015/3112 21007KT P6SM SCT045 OVC070
     FM301800 24012G20KT P6SM VCSH BKN050
     FM310000 27007KT P6SM SCT050
     FM310700 28004KT P6SM FEW050=



000
FTUS41 KALY 301457 AAC
TAFGFL
TAF AMD
KGFL 301457Z 3015/3112 22009KT P6SM VCSH OVC014
     FM301800 24014G22KT P6SM -SHRASN BKN020
     FM310000 25008G14KT P6SM BKN035
     FM310700 28007KT P6SM BKN050=



000
FTUS41 KALY 301401 AAB
TAFALB
TAF AMD
KALB 301401Z 3014/3112 17015G22KT P6SM -SN SCT011 BKN045 OVC060
     FM301500 19017G28KT P6SM BKN045
     FM301700 27017G28KT P6SM VCSH BKN035
     FM302100 27012G20KT P6SM BKN050
     FM310700 29010KT P6SM BKN050=



000
FTUS41 KALY 301400 AAB
TAFGFL
TAF AMD
KGFL 301400Z 3014/3112 20006KT P6SM VCSH OVC012
     FM301500 21010KT P6SM VCSH BKN025
     FM301800 24014G22KT P6SM -SHRASN BKN030
     FM310000 25008G14KT P6SM BKN050
     FM310700 28007KT P6SM BKN050=



000
FTUS41 KALY 301257 AAA
TAFALB
TAF AMD
KALB 301257Z 3013/3112 18014G18KT 5SM -SN VCSH SCT011 SCT045 OVC060
     FM301500 19017G28KT P6SM BKN045
     FM301700 27017G28KT P6SM VCSH BKN035
     FM302100 27012G20KT P6SM BKN050
     FM310700 29010KT P6SM BKN050=



000
FTUS41 KALY 301257 CCA
TAFALB
TAF COR
KALB 301257Z 3013/3112 18014G18KT 5SM -SN SCT011 SCT045 OVC060
     FM301500 19017G28KT P6SM BKN045
     FM301700 27017G28KT P6SM VCSH BKN035
     FM302100 27012G20KT P6SM BKN050
     FM310700 29010KT P6SM BKN050=



000
FTUS41 KALY 301256 AAA
TAFGFL
TAF AMD
KGFL 301256Z 3013/3112 18007KT 2SM -SN VCSH OVC013
      TEMPO 3013/3015 5SM -SHSN OVC030
     FM301500 21010KT P6SM VCSH BKN035
     FM301800 24014G22KT P6SM VCSH BKN030
     FM310000 25008G14KT P6SM BKN050
     FM310700 28007KT P6SM BKN050=



000
FTUS41 KALY 301256 AAA
TAFGFL
TAF AMD
KGFL 301256Z 3013/3112 18007KT 2SM -SN VCSH OVC013
      TEMPO 3013/3015 5SM -SHSN OVC030
     FM301500 21010KT P6SM VCSH BKN035
     FM301800 24014G22KT P6SM VCSH BKN030
     FM310000 25008G14KT P6SM BKN050
     FM310700 28007KT P6SM BKN050=



000
FTUS41 KALY 301159 CCA
TAFPOU
TAF COR
KPOU 301159Z 3012/3112 17007KT P6SM VCSH FEW019 OVC050
      TEMPO 3012/3014 BKN019
     FM301500 20012G20KT P6SM VCSH BKN045
     FM301800 27012G20KT P6SM BKN050
     FM310000 27007KT P6SM SCT050
     FM310700 28004KT P6SM FEW050=



000
FTUS41 KALY 301159 CCA
TAFPOU
TAF COR
KPOU 301159Z 3012/3112 17007KT P6SM VCSH FEW019 OVC050
      TEMPO 3012/3014 BKN019
     FM301500 20012G20KT P6SM VCSH BKN045
     FM301800 27012G20KT P6SM BKN050
     FM310000 27007KT P6SM SCT050
     FM310700 28004KT P6SM FEW050=



000
FTUS41 KALY 301157 CCA
TAFGFL
TAF COR
KGFL 301157Z 3012/3112 20005KT 2SM -SN VCSH OVC025
      TEMPO 3012/3015 5SM -SHSN OVC030
     FM301500 21010KT P6SM VCSH BKN035
     FM301800 24014G22KT P6SM VCSH BKN030
     FM310000 25008G14KT P6SM BKN050
     FM310700 28007KT P6SM BKN050=



000
FTUS41 KALY 301157 CCA
TAFGFL
TAF COR
KGFL 301157Z 3012/3112 20005KT 2SM -SN VCSH OVC025
      TEMPO 3012/3015 5SM -SHSN OVC030
     FM301500 21010KT P6SM VCSH BKN035
     FM301800 24014G22KT P6SM VCSH BKN030
     FM310000 25008G14KT P6SM BKN050
     FM310700 28007KT P6SM BKN050=



000
FTUS41 KALY 301149
TAFALB
TAF
KALB 301149Z 3012/3112 18014KT P6SM VCSH FEW011 BKN013 OVC045
     FM301500 19017G28KT P6SM BKN030
     FM301700 27017G28KT P6SM VCSH BKN050
     FM302100 27012G20KT P6SM BKN050
     FM310700 29010KT P6SM BKN050=



000
FTUS41 KALY 301149
TAFGFL
TAF
KGFL 301149Z 3012/3112 21005KT P6SM VCSH BKN024 OVC035
      TEMPO 3012/3015 3SM -SHSN OVC020
     FM301800 24014G22KT P6SM VCSH BKN050
     FM310000 25008G14KT P6SM BKN050
     FM310700 28007KT P6SM BKN050=



000
FTUS41 KALY 301149
TAFGFL
TAF
KGFL 301149Z 3012/3112 21005KT P6SM VCSH BKN024 OVC035
      TEMPO 3012/3015 3SM -SHSN OVC020
     FM301800 24014G22KT P6SM VCSH BKN050
     FM310000 25008G14KT P6SM BKN050
     FM310700 28007KT P6SM BKN050=



000
FTUS41 KALY 301149
TAFALB
TAF
KALB 301149Z 3012/3112 18014KT P6SM VCSH FEW011 BKN013 OVC045
     FM301500 19017G28KT P6SM BKN030
     FM301700 27017G28KT P6SM VCSH BKN050
     FM302100 27012G20KT P6SM BKN050
     FM310700 29010KT P6SM BKN050=



000
FTUS41 KALY 301149
TAFPOU
TAF
KPOU 301149Z 3012/3112 15005KT P6SM VCSH BKN020 OVC060
     FM301300 18007KT P6SM BKN045
     FM301500 20012G20KT P6SM VCSH BKN045
     FM301800 27012G20KT P6SM BKN050
     FM310000 27007KT P6SM SCT050
     FM310700 28004KT P6SM FEW050=



000
FTUS41 KALY 301149
TAFPOU
TAF
KPOU 301149Z 3012/3112 15005KT P6SM VCSH BKN020 OVC060
     FM301300 18007KT P6SM BKN045
     FM301500 20012G20KT P6SM VCSH BKN045
     FM301800 27012G20KT P6SM BKN050
     FM310000 27007KT P6SM SCT050
     FM310700 28004KT P6SM FEW050=



000
FTUS41 KALY 301106 AAB
TAFPOU
TAF AMD
KPOU 301106Z 3011/3106 14004KT 4SM -SN BR VCSH FEW025 SCT040 OVC060
      TEMPO 3011/3012 2SM -SHSN OVC025
     FM301200 18007KT P6SM VCSH BKN045
     FM301700 24010G15KT P6SM VCSH BKN045
     FM302000 27012G20KT P6SM BKN060
     FM310000 27007KT P6SM BKN060=



000
FTUS41 KALY 301016 AAA
TAFPOU
TAF AMD
KPOU 301016Z 3010/3106 20008G14KT P6SM VCSH OVC040
      TEMPO 3010/3011 2SM -SHSN OVC025
     FM301700 24010G15KT P6SM VCSH BKN045
     FM302000 27012G20KT P6SM VCSH BKN060
     FM310000 27007KT P6SM BKN060=



000
FTUS41 KALY 301016 AAA
TAFPOU
TAF AMD
KPOU 301016Z 3010/3106 20008G14KT P6SM VCSH OVC040
      TEMPO 3010/3011 2SM -SHSN OVC025
     FM301700 24010G15KT P6SM VCSH BKN045
     FM302000 27012G20KT P6SM VCSH BKN060
     FM310000 27007KT P6SM BKN060=



    US Dept of Commerce
    National Oceanic and Atmospheric Administration
    National Weather Service
    1325 East West Highway
    Silver Spring, MD 20910
    Page Author: NWS Internet Services Team
Disclaimer
Information Quality
Credits
Glossary
Privacy Policy
Freedom of Information Act (FOIA)
About Us
Career Opportunities